sensor_id;sensor_type;location;lat;lon;timestamp;pressure;altitude;pressure_sealevel;temperature;humidity
41306;BME280;27051;50.376;19.152;2024-03-17T00:02:03;98325.06;;;9.59;62.56
41306;BME280;27051;50.376;19.152;2024-03-17T00:04:35;98331.02;;;9.55;62.76
41306;BME280;27051;50.376;19.152;2024-03-17T00:07:02;98332.48;;;9.59;62.92
41306;BME280;27051;50.376;19.152;2024-03-17T00:09:44;98340.77;;;9.65;63.28
41306;BME280;27051;50.376;19.152;2024-03-17T00:12:43;98342.45;;;9.65;62.96
41306;BME280;27051;50.376;19.152;2024-03-17T00:15:12;98349.81;;;9.59;63.58
41306;BME280;27051;50.376;19.152;2024-03-17T00:17:42;98358.66;;;9.50;63.11
41306;BME280;27051;50.376;19.152;2024-03-17T00:20:09;98369.90;;;9.35;63.55
41306;BME280;27051;50.376;19.152;2024-03-17T00:22:36;98374.02;;;9.15;63.02
41306;BME280;27051;50.376;19.152;2024-03-17T00:25:04;98379.92;;;9.04;62.42
41306;BME280;27051;50.376;19.152;2024-03-17T00:27:31;98377.17;;;8.91;62.18
41306;BME280;27051;50.376;19.152;2024-03-17T00:30:07;98377.33;;;8.76;61.88
41306;BME280;27051;50.376;19.152;2024-03-17T00:32:45;98377.48;;;8.69;61.82
41306;BME280;27051;50.376;19.152;2024-03-17T00:35:18;98387.50;;;8.61;61.84
41306;BME280;27051;50.376;19.152;2024-03-17T00:37:48;98391.70;;;8.64;61.90
41306;BME280;27051;50.376;19.152;2024-03-17T00:40:18;98400.14;;;8.63;61.70
41306;BME280;27051;50.376;19.152;2024-03-17T00:42:56;98403.30;;;8.60;61.65
41306;BME280;27051;50.376;19.152;2024-03-17T00:45:25;98402.11;;;8.56;61.67
41306;BME280;27051;50.376;19.152;2024-03-17T00:47:59;98400.54;;;8.56;61.34
41306;BME280;27051;50.376;19.152;2024-03-17T00:50:35;98407.13;;;8.49;61.45
41306;BME280;27051;50.376;19.152;2024-03-17T00:53:02;98408.81;;;8.43;61.43
41306;BME280;27051;50.376;19.152;2024-03-17T00:58:22;98408.03;;;8.39;61.56
41306;BME280;27051;50.376;19.152;2024-03-17T01:01:10;98407.36;;;8.36;61.55
41306;BME280;27051;50.376;19.152;2024-03-17T01:03:36;98404.80;;;8.39;61.55
41306;BME280;27051;50.376;19.152;2024-03-17T01:06:22;98408.39;;;8.44;61.46
41306;BME280;27051;50.376;19.152;2024-03-17T01:09:12;98412.36;;;8.50;61.41
41306;BME280;27051;50.376;19.152;2024-03-17T01:12:03;98413.81;;;8.44;61.22
41306;BME280;27051;50.376;19.152;2024-03-17T01:14:30;98415.41;;;8.39;61.14
41306;BME280;27051;50.376;19.152;2024-03-17T01:17:00;98418.24;;;8.39;61.13
41306;BME280;27051;50.376;19.152;2024-03-17T01:19:30;98422.86;;;8.43;61.10
41306;BME280;27051;50.376;19.152;2024-03-17T01:22:01;98420.74;;;8.49;61.02
41306;BME280;27051;50.376;19.152;2024-03-17T01:24:28;98423.85;;;8.54;60.97
41306;BME280;27051;50.376;19.152;2024-03-17T01:26:55;98424.61;;;8.52;60.96
41306;BME280;27051;50.376;19.152;2024-03-17T01:29:35;98424.20;;;8.51;60.96
41306;BME280;27051;50.376;19.152;2024-03-17T01:32:08;98426.39;;;8.48;60.91
41306;BME280;27051;50.376;19.152;2024-03-17T01:34:39;98428.33;;;8.55;60.97
41306;BME280;27051;50.376;19.152;2024-03-17T01:37:08;98427.04;;;8.53;60.95
41306;BME280;27051;50.376;19.152;2024-03-17T01:39:43;98427.33;;;8.51;60.88
41306;BME280;27051;50.376;19.152;2024-03-17T01:42:10;98429.48;;;8.45;60.85
41306;BME280;27051;50.376;19.152;2024-03-17T01:44:46;98428.70;;;8.37;61.00
41306;BME280;27051;50.376;19.152;2024-03-17T01:47:34;98424.26;;;8.37;61.16
41306;BME280;27051;50.376;19.152;2024-03-17T01:50:10;98424.34;;;8.40;61.10
41306;BME280;27051;50.376;19.152;2024-03-17T01:53:01;98423.49;;;8.40;61.24
41306;BME280;27051;50.376;19.152;2024-03-17T01:55:49;98421.16;;;8.38;61.40
41306;BME280;27051;50.376;19.152;2024-03-17T01:58:20;98425.98;;;8.36;61.26
41306;BME280;27051;50.376;19.152;2024-03-17T02:04:10;98436.31;;;8.35;61.23
41306;BME280;27051;50.376;19.152;2024-03-17T02:06:36;98436.86;;;8.35;61.33
41306;BME280;27051;50.376;19.152;2024-03-17T02:09:22;98435.32;;;8.24;61.19
41306;BME280;27051;50.376;19.152;2024-03-17T02:11:49;98433.08;;;8.18;61.42
41306;BME280;27051;50.376;19.152;2024-03-17T02:14:16;98441.27;;;8.19;61.46
41306;BME280;27051;50.376;19.152;2024-03-17T02:16:46;98446.73;;;8.21;61.52
41306;BME280;27051;50.376;19.152;2024-03-17T02:19:33;98446.14;;;8.18;61.49
41306;BME280;27051;50.376;19.152;2024-03-17T02:22:00;98447.36;;;8.06;61.33
41306;BME280;27051;50.376;19.152;2024-03-17T02:24:33;98448.73;;;7.96;61.42
41306;BME280;27051;50.376;19.152;2024-03-17T02:27:12;98451.59;;;7.90;61.49
41306;BME280;27051;50.376;19.152;2024-03-17T02:29:42;98453.10;;;7.88;61.69
41306;BME280;27051;50.376;19.152;2024-03-17T02:32:32;98454.13;;;7.82;61.54
41306;BME280;27051;50.376;19.152;2024-03-17T02:35:05;98454.05;;;7.69;61.59
41306;BME280;27051;50.376;19.152;2024-03-17T02:37:54;98456.41;;;7.65;61.52
41306;BME280;27051;50.376;19.152;2024-03-17T02:40:39;98459.60;;;7.58;61.67
41306;BME280;27051;50.376;19.152;2024-03-17T02:43:17;98458.38;;;7.61;61.75
41306;BME280;27051;50.376;19.152;2024-03-17T02:46:04;98455.09;;;7.56;61.58
41306;BME280;27051;50.376;19.152;2024-03-17T02:48:54;98452.45;;;7.57;61.70
41306;BME280;27051;50.376;19.152;2024-03-17T02:51:26;98454.57;;;7.68;61.59
41306;BME280;27051;50.376;19.152;2024-03-17T02:53:58;98458.23;;;7.65;61.53
41306;BME280;27051;50.376;19.152;2024-03-17T02:59:17;98470.10;;;7.53;61.59
41306;BME280;27051;50.376;19.152;2024-03-17T03:04:42;98473.27;;;7.47;61.47
41306;BME280;27051;50.376;19.152;2024-03-17T03:07:20;98479.53;;;7.47;61.53
41306;BME280;27051;50.376;19.152;2024-03-17T03:10:07;98481.66;;;7.43;61.40
41306;BME280;27051;50.376;19.152;2024-03-17T03:12:45;98482.88;;;7.34;61.24
41306;BME280;27051;50.376;19.152;2024-03-17T03:15:21;98492.42;;;7.22;61.28
41306;BME280;27051;50.376;19.152;2024-03-17T03:17:54;98491.57;;;7.05;61.16
41306;BME280;27051;50.376;19.152;2024-03-17T03:20:21;98493.65;;;6.96;61.21
41306;BME280;27051;50.376;19.152;2024-03-17T03:23:11;98494.12;;;6.95;61.24
41306;BME280;27051;50.376;19.152;2024-03-17T03:28:29;98500.91;;;6.88;61.13
41306;BME280;27051;50.376;19.152;2024-03-17T03:30:56;98501.90;;;6.78;61.00
41306;BME280;27051;50.376;19.152;2024-03-17T03:36:13;98511.06;;;6.79;60.95
41306;BME280;27051;50.376;19.152;2024-03-17T03:39:02;98512.05;;;6.80;60.92
41306;BME280;27051;50.376;19.152;2024-03-17T03:41:48;98518.56;;;6.81;60.76
41306;BME280;27051;50.376;19.152;2024-03-17T03:44:17;98521.98;;;6.71;60.69
41306;BME280;27051;50.376;19.152;2024-03-17T03:46:44;98527.61;;;6.63;60.59
41306;BME280;27051;50.376;19.152;2024-03-17T03:49:11;98529.52;;;6.55;60.44
41306;BME280;27051;50.376;19.152;2024-03-17T03:51:38;98530.89;;;6.46;60.55
41306;BME280;27051;50.376;19.152;2024-03-17T03:54:06;98531.89;;;6.39;60.40
41306;BME280;27051;50.376;19.152;2024-03-17T03:56:33;98531.91;;;6.33;60.55
41306;BME280;27051;50.376;19.152;2024-03-17T03:59:00;98537.68;;;6.36;60.63
41306;BME280;27051;50.376;19.152;2024-03-17T04:04:28;98541.15;;;6.31;60.36
41306;BME280;27051;50.376;19.152;2024-03-17T04:07:06;98550.27;;;6.23;60.53
41306;BME280;27051;50.376;19.152;2024-03-17T04:09:36;98550.92;;;6.25;60.51
41306;BME280;27051;50.376;19.152;2024-03-17T04:12:24;98548.70;;;6.29;60.43
41306;BME280;27051;50.376;19.152;2024-03-17T04:14:54;98550.40;;;6.20;60.40
41306;BME280;27051;50.376;19.152;2024-03-17T04:17:27;98551.70;;;6.21;60.37
41306;BME280;27051;50.376;19.152;2024-03-17T04:20:01;98553.19;;;6.22;60.45
41306;BME280;27051;50.376;19.152;2024-03-17T04:22:31;98550.52;;;6.29;60.44
41306;BME280;27051;50.376;19.152;2024-03-17T04:24:58;98552.30;;;6.25;60.18
41306;BME280;27051;50.376;19.152;2024-03-17T04:27:28;98562.52;;;6.06;59.92
41306;BME280;27051;50.376;19.152;2024-03-17T04:30:02;98562.80;;;5.93;60.18
41306;BME280;27051;50.376;19.152;2024-03-17T04:32:32;98561.08;;;5.91;60.30
41306;BME280;27051;50.376;19.152;2024-03-17T04:38:03;98566.94;;;5.85;60.31
41306;BME280;27051;50.376;19.152;2024-03-17T04:40:43;98567.97;;;5.90;60.23
41306;BME280;27051;50.376;19.152;2024-03-17T04:43:10;98565.61;;;5.94;59.99
41306;BME280;27051;50.376;19.152;2024-03-17T04:48:42;98572.71;;;5.91;59.85
41306;BME280;27051;50.376;19.152;2024-03-17T04:51:15;98572.66;;;5.90;59.73
41306;BME280;27051;50.376;19.152;2024-03-17T04:53:42;98576.67;;;5.94;59.73
41306;BME280;27051;50.376;19.152;2024-03-17T04:56:10;98576.56;;;5.95;59.53
41306;BME280;27051;50.376;19.152;2024-03-17T04:58:39;98578.83;;;5.93;59.24
41306;BME280;27051;50.376;19.152;2024-03-17T05:01:12;98575.36;;;5.83;58.98
41306;BME280;27051;50.376;19.152;2024-03-17T05:03:39;98580.36;;;5.79;59.01
41306;BME280;27051;50.376;19.152;2024-03-17T05:06:09;98579.34;;;5.70;59.04
41306;BME280;27051;50.376;19.152;2024-03-17T05:08:45;98585.62;;;5.71;59.18
41306;BME280;27051;50.376;19.152;2024-03-17T05:11:32;98586.46;;;5.75;59.26
41306;BME280;27051;50.376;19.152;2024-03-17T05:14:20;98585.86;;;5.75;59.15
41306;BME280;27051;50.376;19.152;2024-03-17T05:16:51;98590.60;;;5.73;59.07
41306;BME280;27051;50.376;19.152;2024-03-17T05:19:18;98594.35;;;5.66;59.17
41306;BME280;27051;50.376;19.152;2024-03-17T05:21:45;98587.63;;;5.63;59.24
41306;BME280;27051;50.376;19.152;2024-03-17T05:24:15;98589.88;;;5.65;59.09
41306;BME280;27051;50.376;19.152;2024-03-17T05:26:45;98596.50;;;5.70;59.36
41306;BME280;27051;50.376;19.152;2024-03-17T05:29:15;98595.07;;;5.76;59.20
41306;BME280;27051;50.376;19.152;2024-03-17T05:31:42;98593.11;;;5.76;59.03
41306;BME280;27051;50.376;19.152;2024-03-17T05:36:57;98605.34;;;5.69;59.27
41306;BME280;27051;50.376;19.152;2024-03-17T05:39:24;98603.89;;;5.69;59.20
41306;BME280;27051;50.376;19.152;2024-03-17T05:42:01;98606.63;;;5.68;59.18
41306;BME280;27051;50.376;19.152;2024-03-17T05:47:17;98610.61;;;5.84;59.33
41306;BME280;27051;50.376;19.152;2024-03-17T05:49:53;98615.10;;;5.93;59.38
41306;BME280;27051;50.376;19.152;2024-03-17T05:52:37;98615.52;;;5.90;59.20
41306;BME280;27051;50.376;19.152;2024-03-17T05:58:04;98615.61;;;5.98;59.20
41306;BME280;27051;50.376;19.152;2024-03-17T06:01:01;98624.42;;;5.97;59.18
41306;BME280;27051;50.376;19.152;2024-03-17T06:03:27;98621.67;;;6.02;59.40
41306;BME280;27051;50.376;19.152;2024-03-17T06:06:08;98627.83;;;6.01;59.30
41306;BME280;27051;50.376;19.152;2024-03-17T06:09:17;98624.40;;;5.96;59.38
41306;BME280;27051;50.376;19.152;2024-03-17T06:11:55;98619.41;;;5.94;59.18
41306;BME280;27051;50.376;19.152;2024-03-17T06:14:22;98618.34;;;5.98;59.41
41306;BME280;27051;50.376;19.152;2024-03-17T06:17:03;98623.09;;;6.04;59.28
41306;BME280;27051;50.376;19.152;2024-03-17T06:19:47;98625.98;;;6.09;59.28
41306;BME280;27051;50.376;19.152;2024-03-17T06:22:24;98628.38;;;6.15;59.31
41306;BME280;27051;50.376;19.152;2024-03-17T06:25:03;98634.59;;;6.17;59.16
41306;BME280;27051;50.376;19.152;2024-03-17T06:27:46;98636.45;;;6.15;58.92
41306;BME280;27051;50.376;19.152;2024-03-17T06:30:54;98638.71;;;6.16;58.71
41306;BME280;27051;50.376;19.152;2024-03-17T06:33:30;98642.35;;;6.18;58.43
41306;BME280;27051;50.376;19.152;2024-03-17T06:36:27;98646.13;;;6.27;58.74
41306;BME280;27051;50.376;19.152;2024-03-17T06:39:09;98645.21;;;6.36;58.13
41306;BME280;27051;50.376;19.152;2024-03-17T06:41:36;98647.14;;;6.41;58.27
41306;BME280;27051;50.376;19.152;2024-03-17T06:44:06;98639.39;;;6.54;58.16
41306;BME280;27051;50.376;19.152;2024-03-17T06:46:56;98640.65;;;6.71;58.22
41306;BME280;27051;50.376;19.152;2024-03-17T06:52:22;98645.34;;;6.79;57.48
41306;BME280;27051;50.376;19.152;2024-03-17T06:58:06;98652.84;;;6.88;57.32
41306;BME280;27051;50.376;19.152;2024-03-17T07:00:55;98648.20;;;7.00;57.70
41306;BME280;27051;50.376;19.152;2024-03-17T07:04:07;98651.95;;;7.16;57.60
41306;BME280;27051;50.376;19.152;2024-03-17T07:06:23;98650.73;;;7.21;57.04
41306;BME280;27051;50.376;19.152;2024-03-17T07:09:10;98650.25;;;7.11;56.55
41306;BME280;27051;50.376;19.152;2024-03-17T07:11:57;98649.92;;;7.02;56.40
41306;BME280;27051;50.376;19.152;2024-03-17T07:14:33;98652.65;;;7.09;56.90
41306;BME280;27051;50.376;19.152;2024-03-17T07:17:14;98655.58;;;7.24;57.04
41306;BME280;27051;50.376;19.152;2024-03-17T07:19:41;98658.52;;;7.41;56.72
41306;BME280;27051;50.376;19.152;2024-03-17T07:22:28;98655.28;;;7.45;56.21
41306;BME280;27051;50.376;19.152;2024-03-17T07:24:55;98652.58;;;7.51;55.57
41306;BME280;27051;50.376;19.152;2024-03-17T07:27:28;98649.33;;;7.53;56.02
41306;BME280;27051;50.376;19.152;2024-03-17T07:30:06;98655.35;;;7.56;55.86
41306;BME280;27051;50.376;19.152;2024-03-17T07:35:16;98658.93;;;7.54;55.52
41306;BME280;27051;50.376;19.152;2024-03-17T07:38:10;98657.20;;;7.53;54.98
41306;BME280;27051;50.376;19.152;2024-03-17T07:43:52;98658.12;;;7.54;55.19
41306;BME280;27051;50.376;19.152;2024-03-17T07:46:19;98661.63;;;7.53;55.38
41306;BME280;27051;50.376;19.152;2024-03-17T07:51:46;98659.92;;;7.76;55.08
41306;BME280;27051;50.376;19.152;2024-03-17T07:54:41;98664.23;;;8.02;55.15
41306;BME280;27051;50.376;19.152;2024-03-17T07:57:29;98661.87;;;8.21;53.45
41306;BME280;27051;50.376;19.152;2024-03-17T08:00:21;98660.78;;;8.16;53.92
41306;BME280;27051;50.376;19.152;2024-03-17T08:02:51;98654.95;;;8.17;53.17
41306;BME280;27051;50.376;19.152;2024-03-17T08:05:18;98657.11;;;8.11;53.05
41306;BME280;27051;50.376;19.152;2024-03-17T08:07:51;98654.98;;;7.99;53.10
41306;BME280;27051;50.376;19.152;2024-03-17T08:10:24;98655.63;;;7.98;52.98
41306;BME280;27051;50.376;19.152;2024-03-17T08:13:09;98658.08;;;8.02;52.86
41306;BME280;27051;50.376;19.152;2024-03-17T08:15:46;98656.09;;;8.14;52.88
41306;BME280;27051;50.376;19.152;2024-03-17T08:18:16;98655.99;;;8.23;52.43
41306;BME280;27051;50.376;19.152;2024-03-17T08:21:00;98653.63;;;8.25;51.97
41306;BME280;27051;50.376;19.152;2024-03-17T08:23:27;98652.00;;;8.24;52.12
41306;BME280;27051;50.376;19.152;2024-03-17T08:26:18;98647.49;;;8.34;52.35
41306;BME280;27051;50.376;19.152;2024-03-17T08:28:48;98650.78;;;8.52;52.48
41306;BME280;27051;50.376;19.152;2024-03-17T08:31:15;98640.39;;;8.75;52.10
41306;BME280;27051;50.376;19.152;2024-03-17T08:33:42;98637.39;;;8.97;51.20
41306;BME280;27051;50.376;19.152;2024-03-17T08:36:09;98637.42;;;8.93;50.77
41306;BME280;27051;50.376;19.152;2024-03-17T08:38:37;98639.80;;;8.89;51.10
41306;BME280;27051;50.376;19.152;2024-03-17T08:41:06;98638.34;;;8.94;50.28
41306;BME280;27051;50.376;19.152;2024-03-17T08:43:34;98633.48;;;8.99;50.43
41306;BME280;27051;50.376;19.152;2024-03-17T08:46:15;98632.92;;;9.12;50.15
41306;BME280;27051;50.376;19.152;2024-03-17T08:48:48;98627.45;;;9.29;50.45
41306;BME280;27051;50.376;19.152;2024-03-17T08:51:21;98627.98;;;9.38;49.27
41306;BME280;27051;50.376;19.152;2024-03-17T08:53:51;98627.73;;;9.32;48.98
41306;BME280;27051;50.376;19.152;2024-03-17T08:56:21;98622.62;;;9.38;48.99
41306;BME280;27051;50.376;19.152;2024-03-17T08:59:00;98622.65;;;9.56;49.37
41306;BME280;27051;50.376;19.152;2024-03-17T09:01:27;98626.65;;;9.73;50.07
41306;BME280;27051;50.376;19.152;2024-03-17T09:04:04;98628.95;;;9.77;49.32
41306;BME280;27051;50.376;19.152;2024-03-17T09:06:40;98631.45;;;9.76;49.24
41306;BME280;27051;50.376;19.152;2024-03-17T09:09:08;98637.65;;;10.00;49.01
41306;BME280;27051;50.376;19.152;2024-03-17T09:11:40;98635.79;;;10.09;48.58
41306;BME280;27051;50.376;19.152;2024-03-17T09:14:07;98630.27;;;10.13;47.38
41306;BME280;27051;50.376;19.152;2024-03-17T09:16:35;98631.86;;;10.15;47.31
41306;BME280;27051;50.376;19.152;2024-03-17T09:19:02;98625.77;;;10.24;46.94
41306;BME280;27051;50.376;19.152;2024-03-17T09:21:28;98630.27;;;10.30;47.07
41306;BME280;27051;50.376;19.152;2024-03-17T09:23:55;98628.60;;;10.29;47.22
41306;BME280;27051;50.376;19.152;2024-03-17T09:26:22;98633.79;;;10.19;46.66
41306;BME280;27051;50.376;19.152;2024-03-17T09:28:50;98635.57;;;10.26;47.54
41306;BME280;27051;50.376;19.152;2024-03-17T09:31:22;98633.21;;;10.81;47.20
41306;BME280;27051;50.376;19.152;2024-03-17T09:33:50;98627.92;;;11.45;47.14
41306;BME280;27051;50.376;19.152;2024-03-17T09:36:20;98629.21;;;11.80;46.65
41306;BME280;27051;50.376;19.152;2024-03-17T09:38:50;98626.72;;;11.90;45.93
41306;BME280;27051;50.376;19.152;2024-03-17T09:41:30;98629.82;;;12.10;45.77
41306;BME280;27051;50.376;19.152;2024-03-17T09:44:00;98628.23;;;12.06;45.16
41306;BME280;27051;50.376;19.152;2024-03-17T09:46:30;98637.23;;;11.96;44.94
41306;BME280;27051;50.376;19.152;2024-03-17T09:49:19;98633.38;;;11.79;44.99
41306;BME280;27051;50.376;19.152;2024-03-17T09:51:57;98627.59;;;11.53;44.88
41306;BME280;27051;50.376;19.152;2024-03-17T09:54:27;98624.33;;;11.43;45.33
41306;BME280;27051;50.376;19.152;2024-03-17T09:56:54;98626.87;;;11.45;45.29
41306;BME280;27051;50.376;19.152;2024-03-17T09:59:22;98621.42;;;11.55;44.98
41306;BME280;27051;50.376;19.152;2024-03-17T10:01:50;98620.02;;;11.72;44.23
41306;BME280;27051;50.376;19.152;2024-03-17T10:04:31;98619.08;;;11.79;44.35
41306;BME280;27051;50.376;19.152;2024-03-17T10:06:58;98620.86;;;11.82;44.36
41306;BME280;27051;50.376;19.152;2024-03-17T10:09:25;98622.91;;;11.74;44.13
41306;BME280;27051;50.376;19.152;2024-03-17T10:11:54;98619.27;;;11.69;44.23
41306;BME280;27051;50.376;19.152;2024-03-17T10:14:33;98610.44;;;11.89;43.72
41306;BME280;27051;50.376;19.152;2024-03-17T10:17:09;98607.59;;;12.20;43.65
41306;BME280;27051;50.376;19.152;2024-03-17T10:19:42;98606.73;;;12.42;43.58
41306;BME280;27051;50.376;19.152;2024-03-17T10:22:20;98604.56;;;12.70;42.64
41306;BME280;27051;50.376;19.152;2024-03-17T10:25:08;98606.07;;;13.12;42.66
41306;BME280;27051;50.376;19.152;2024-03-17T10:27:45;98601.91;;;13.66;42.53
41306;BME280;27051;50.376;19.152;2024-03-17T10:30:24;98597.55;;;14.21;41.81
41306;BME280;27051;50.376;19.152;2024-03-17T10:32:57;98601.83;;;14.32;40.05
41306;BME280;27051;50.376;19.152;2024-03-17T10:35:35;98594.48;;;14.36;40.86
41306;BME280;27051;50.376;19.152;2024-03-17T10:38:04;98588.27;;;14.82;40.14
41306;BME280;27051;50.376;19.152;2024-03-17T10:40:33;98585.63;;;15.50;39.24
41306;BME280;27051;50.376;19.152;2024-03-17T10:43:01;98588.02;;;16.22;39.56
41306;BME280;27051;50.376;19.152;2024-03-17T10:45:45;98582.70;;;17.03;37.93
41306;BME280;27051;50.376;19.152;2024-03-17T10:48:14;98575.48;;;17.75;37.87
41306;BME280;27051;50.376;19.152;2024-03-17T10:50:49;98576.23;;;18.20;36.69
41306;BME280;27051;50.376;19.152;2024-03-17T10:53:27;98571.61;;;18.48;35.55
41306;BME280;27051;50.376;19.152;2024-03-17T10:56:08;98574.41;;;18.74;35.20
41306;BME280;27051;50.376;19.152;2024-03-17T10:58:44;98573.60;;;19.19;35.68
41306;BME280;27051;50.376;19.152;2024-03-17T11:01:16;98561.89;;;19.89;34.73
41306;BME280;27051;50.376;19.152;2024-03-17T11:03:53;98557.17;;;20.72;34.59
41306;BME280;27051;50.376;19.152;2024-03-17T11:06:27;98558.06;;;21.23;32.96
41306;BME280;27051;50.376;19.152;2024-03-17T11:08:54;98558.25;;;21.71;32.09
41306;BME280;27051;50.376;19.152;2024-03-17T11:11:42;98561.86;;;22.28;32.13
41306;BME280;27051;50.376;19.152;2024-03-17T11:14:18;98558.05;;;22.85;31.46
41306;BME280;27051;50.376;19.152;2024-03-17T11:16:46;98555.73;;;23.70;31.19
41306;BME280;27051;50.376;19.152;2024-03-17T11:19:19;98555.51;;;24.15;30.33
41306;BME280;27051;50.376;19.152;2024-03-17T11:21:47;98548.88;;;24.16;29.23
41306;BME280;27051;50.376;19.152;2024-03-17T11:24:27;98551.27;;;24.04;29.46
41306;BME280;27051;50.376;19.152;2024-03-17T11:26:54;98546.48;;;24.63;28.98
41306;BME280;27051;50.376;19.152;2024-03-17T11:29:29;98543.11;;;25.24;27.95
41306;BME280;27051;50.376;19.152;2024-03-17T11:31:56;98540.80;;;25.77;27.76
41306;BME280;27051;50.376;19.152;2024-03-17T11:34:33;98536.52;;;25.48;25.74
41306;BME280;27051;50.376;19.152;2024-03-17T11:37:02;98538.31;;;25.05;26.11
41306;BME280;27051;50.376;19.152;2024-03-17T11:39:49;98534.17;;;24.66;27.01
41306;BME280;27051;50.376;19.152;2024-03-17T11:42:16;98533.98;;;24.15;27.33
41306;BME280;27051;50.376;19.152;2024-03-17T11:45:03;98527.73;;;24.36;26.90
41306;BME280;27051;50.376;19.152;2024-03-17T11:47:39;98528.59;;;25.47;25.93
41306;BME280;27051;50.376;19.152;2024-03-17T11:50:10;98523.71;;;25.78;25.91
41306;BME280;27051;50.376;19.152;2024-03-17T11:52:39;98521.59;;;25.55;25.00
41306;BME280;27051;50.376;19.152;2024-03-17T11:55:15;98518.23;;;25.70;23.70
41306;BME280;27051;50.376;19.152;2024-03-17T11:57:43;98516.73;;;26.21;23.66
41306;BME280;27051;50.376;19.152;2024-03-17T12:00:19;98516.90;;;26.24;24.26
41306;BME280;27051;50.376;19.152;2024-03-17T12:02:48;98510.73;;;26.80;23.71
41306;BME280;27051;50.376;19.152;2024-03-17T12:05:16;98513.95;;;27.75;22.83
41306;BME280;27051;50.376;19.152;2024-03-17T12:07:43;98511.90;;;28.28;22.21
41306;BME280;27051;50.376;19.152;2024-03-17T12:10:11;98510.41;;;28.67;21.27
41306;BME280;27051;50.376;19.152;2024-03-17T12:12:38;98500.42;;;29.15;21.15
41306;BME280;27051;50.376;19.152;2024-03-17T12:15:17;98502.30;;;29.66;19.76
41306;BME280;27051;50.376;19.152;2024-03-17T12:17:44;98500.08;;;30.18;19.83
41306;BME280;27051;50.376;19.152;2024-03-17T12:20:17;98492.68;;;30.44;19.04
41306;BME280;27051;50.376;19.152;2024-03-17T12:22:44;98496.25;;;30.73;18.82
41306;BME280;27051;50.376;19.152;2024-03-17T12:25:17;98488.36;;;31.10;18.26
41306;BME280;27051;50.376;19.152;2024-03-17T12:27:45;98485.05;;;31.85;18.72
41306;BME280;27051;50.376;19.152;2024-03-17T12:30:12;98478.66;;;32.19;17.44
41306;BME280;27051;50.376;19.152;2024-03-17T12:32:40;98474.92;;;32.31;17.41
41306;BME280;27051;50.376;19.152;2024-03-17T12:35:15;98477.11;;;32.82;17.40
41306;BME280;27051;50.376;19.152;2024-03-17T12:37:43;98476.23;;;33.47;17.37
41306;BME280;27051;50.376;19.152;2024-03-17T12:40:18;98470.60;;;34.16;17.10
41306;BME280;27051;50.376;19.152;2024-03-17T12:42:49;98467.42;;;34.51;16.13
41306;BME280;27051;50.376;19.152;2024-03-17T12:45:20;98464.14;;;34.89;16.54
41306;BME280;27051;50.376;19.152;2024-03-17T12:47:50;98462.77;;;35.13;15.37
41306;BME280;27051;50.376;19.152;2024-03-17T12:50:26;98456.98;;;34.58;15.44
41306;BME280;27051;50.376;19.152;2024-03-17T12:52:54;98460.59;;;32.77;15.77
41306;BME280;27051;50.376;19.152;2024-03-17T12:55:23;98459.19;;;32.52;15.84
41306;BME280;27051;50.376;19.152;2024-03-17T12:57:52;98459.40;;;31.01;16.27
41306;BME280;27051;50.376;19.152;2024-03-17T13:00:22;98450.62;;;29.68;16.80
41306;BME280;27051;50.376;19.152;2024-03-17T13:02:49;98454.24;;;29.23;16.66
41306;BME280;27051;50.376;19.152;2024-03-17T13:05:18;98451.73;;;30.15;16.82
41306;BME280;27051;50.376;19.152;2024-03-17T13:07:45;98457.92;;;31.44;16.84
41306;BME280;27051;50.376;19.152;2024-03-17T13:10:19;98458.15;;;32.00;16.73
41306;BME280;27051;50.376;19.152;2024-03-17T13:12:47;98456.67;;;30.38;17.15
41306;BME280;27051;50.376;19.152;2024-03-17T13:15:17;98454.64;;;29.07;17.67
41306;BME280;27051;50.376;19.152;2024-03-17T13:17:44;98453.20;;;29.08;17.76
41306;BME280;27051;50.376;19.152;2024-03-17T13:20:15;98453.14;;;28.36;18.16
41306;BME280;27051;50.376;19.152;2024-03-17T13:22:43;98449.82;;;26.82;18.57
41306;BME280;27051;50.376;19.152;2024-03-17T13:25:16;98456.64;;;25.50;19.06
41306;BME280;27051;50.376;19.152;2024-03-17T13:27:46;98459.27;;;23.63;19.58
41306;BME280;27051;50.376;19.152;2024-03-17T13:30:15;98461.46;;;21.89;20.38
41306;BME280;27051;50.376;19.152;2024-03-17T13:32:43;98461.16;;;20.57;21.09
41306;BME280;27051;50.376;19.152;2024-03-17T13:35:14;98463.23;;;19.62;21.80
41306;BME280;27051;50.376;19.152;2024-03-17T13:37:42;98459.17;;;19.32;22.13
41306;BME280;27051;50.376;19.152;2024-03-17T13:40:13;98459.26;;;19.78;22.25
41306;BME280;27051;50.376;19.152;2024-03-17T13:42:43;98458.95;;;19.52;22.23
41306;BME280;27051;50.376;19.152;2024-03-17T13:45:13;98459.75;;;19.05;22.63
41306;BME280;27051;50.376;19.152;2024-03-17T13:47:41;98446.83;;;21.13;22.08
41306;BME280;27051;50.376;19.152;2024-03-17T13:50:09;98441.16;;;23.63;20.91
41306;BME280;27051;50.376;19.152;2024-03-17T13:52:43;98434.51;;;25.70;20.13
41306;BME280;27051;50.376;19.152;2024-03-17T13:55:18;98432.93;;;27.26;19.52
41306;BME280;27051;50.376;19.152;2024-03-17T13:57:47;98426.07;;;27.92;19.14
41306;BME280;27051;50.376;19.152;2024-03-17T14:00:15;98429.62;;;28.66;18.84
41306;BME280;27051;50.376;19.152;2024-03-17T14:02:43;98431.41;;;29.88;18.39
41306;BME280;27051;50.376;19.152;2024-03-17T14:05:21;98427.41;;;31.07;18.45
41306;BME280;27051;50.376;19.152;2024-03-17T14:07:49;98430.98;;;32.33;17.71
41306;BME280;27051;50.376;19.152;2024-03-17T14:10:17;98426.35;;;33.27;17.47
41306;BME280;27051;50.376;19.152;2024-03-17T14:12:45;98425.98;;;34.23;17.16
41306;BME280;27051;50.376;19.152;2024-03-17T14:15:13;98422.77;;;35.24;16.87
41306;BME280;27051;50.376;19.152;2024-03-17T14:17:43;98422.23;;;35.40;16.62
41306;BME280;27051;50.376;19.152;2024-03-17T14:20:11;98424.20;;;35.32;16.36